sensor_id;sensor_type;location;lat;lon;timestamp;P1;durP1;ratioP1;P2;durP2;ratioP2
2772;SDS011;1394;47.044;15.744;2024-03-08T00:01:43;26.10;;;4.63;;
2772;SDS011;1394;47.044;15.744;2024-03-08T00:04:13;25.30;;;3.53;;
2772;SDS011;1394;47.044;15.744;2024-03-08T00:10:03;25.10;;;3.53;;
2772;SDS011;1394;47.044;15.744;2024-03-08T00:12:38;26.70;;;4.10;;
2772;SDS011;1394;47.044;15.744;2024-03-08T00:15:07;25.63;;;4.00;;
2772;SDS011;1394;47.044;15.744;2024-03-08T00:17:36;27.00;;;4.70;;
2772;SDS011;1394;47.044;15.744;2024-03-08T00:20:05;25.50;;;3.90;;
2772;SDS011;1394;47.044;15.744;2024-03-08T00:22:33;27.10;;;4.30;;
2772;SDS011;1394;47.044;15.744;2024-03-08T00:25:03;26.07;;;4.40;;
2772;SDS011;1394;47.044;15.744;2024-03-08T00:27:33;25.70;;;4.00;;
2772;SDS011;1394;47.044;15.744;2024-03-08T00:30:01;26.03;;;4.40;;
2772;SDS011;1394;47.044;15.744;2024-03-08T00:32:28;25.17;;;3.47;;
2772;SDS011;1394;47.044;15.744;2024-03-08T00:34:56;26.80;;;4.20;;
2772;SDS011;1394;47.044;15.744;2024-03-08T00:37:24;25.23;;;3.80;;
2772;SDS011;1394;47.044;15.744;2024-03-08T00:39:53;25.70;;;4.03;;
2772;SDS011;1394;47.044;15.744;2024-03-08T00:42:23;25.30;;;3.73;;
2772;SDS011;1394;47.044;15.744;2024-03-08T00:44:50;26.00;;;4.17;;
2772;SDS011;1394;47.044;15.744;2024-03-08T00:47:17;25.07;;;3.50;;
2772;SDS011;1394;47.044;15.744;2024-03-08T00:49:45;25.10;;;3.60;;
2772;SDS011;1394;47.044;15.744;2024-03-08T00:52:13;26.10;;;4.00;;
2772;SDS011;1394;47.044;15.744;2024-03-08T00:54:43;26.10;;;4.10;;
2772;SDS011;1394;47.044;15.744;2024-03-08T00:57:10;26.60;;;4.40;;
2772;SDS011;1394;47.044;15.744;2024-03-08T00:59:39;25.43;;;3.60;;
2772;SDS011;1394;47.044;15.744;2024-03-08T01:02:08;25.97;;;4.30;;
2772;SDS011;1394;47.044;15.744;2024-03-08T01:04:36;25.93;;;4.33;;
2772;SDS011;1394;47.044;15.744;2024-03-08T01:07:14;26.67;;;4.40;;
2772;SDS011;1394;47.044;15.744;2024-03-08T01:09:46;25.80;;;4.30;;
2772;SDS011;1394;47.044;15.744;2024-03-08T01:12:13;26.13;;;4.00;;
2772;SDS011;1394;47.044;15.744;2024-03-08T01:14:44;26.00;;;4.10;;
2772;SDS011;1394;47.044;15.744;2024-03-08T01:17:12;25.60;;;4.00;;
2772;SDS011;1394;47.044;15.744;2024-03-08T01:19:39;25.80;;;3.93;;
2772;SDS011;1394;47.044;15.744;2024-03-08T01:22:06;25.23;;;3.40;;
2772;SDS011;1394;47.044;15.744;2024-03-08T01:24:34;25.90;;;4.10;;
2772;SDS011;1394;47.044;15.744;2024-03-08T01:27:04;26.20;;;4.43;;
2772;SDS011;1394;47.044;15.744;2024-03-08T01:29:34;25.80;;;4.20;;
2772;SDS011;1394;47.044;15.744;2024-03-08T01:32:05;26.47;;;4.70;;
2772;SDS011;1394;47.044;15.744;2024-03-08T01:34:32;25.90;;;3.60;;
2772;SDS011;1394;47.044;15.744;2024-03-08T01:36:59;26.73;;;4.37;;
2772;SDS011;1394;47.044;15.744;2024-03-08T01:39:27;26.17;;;4.27;;
2772;SDS011;1394;47.044;15.744;2024-03-08T01:41:54;25.50;;;3.43;;
2772;SDS011;1394;47.044;15.744;2024-03-08T01:44:25;26.07;;;4.20;;
2772;SDS011;1394;47.044;15.744;2024-03-08T01:46:53;25.60;;;3.70;;
2772;SDS011;1394;47.044;15.744;2024-03-08T01:49:22;25.83;;;4.07;;
2772;SDS011;1394;47.044;15.744;2024-03-08T01:51:53;27.10;;;3.97;;
2772;SDS011;1394;47.044;15.744;2024-03-08T01:54:22;25.77;;;4.07;;
2772;SDS011;1394;47.044;15.744;2024-03-08T01:56:49;25.43;;;3.50;;
2772;SDS011;1394;47.044;15.744;2024-03-08T01:59:18;26.47;;;4.70;;
2772;SDS011;1394;47.044;15.744;2024-03-08T02:01:46;26.10;;;4.77;;
2772;SDS011;1394;47.044;15.744;2024-03-08T02:04:13;27.13;;;3.80;;
2772;SDS011;1394;47.044;15.744;2024-03-08T02:06:43;25.77;;;4.20;;
2772;SDS011;1394;47.044;15.744;2024-03-08T02:09:10;26.40;;;3.90;;
2772;SDS011;1394;47.044;15.744;2024-03-08T02:11:38;26.80;;;3.63;;
2772;SDS011;1394;47.044;15.744;2024-03-08T02:14:19;25.20;;;3.73;;
2772;SDS011;1394;47.044;15.744;2024-03-08T02:16:47;26.40;;;4.07;;
2772;SDS011;1394;47.044;15.744;2024-03-08T02:19:16;26.03;;;4.03;;
2772;SDS011;1394;47.044;15.744;2024-03-08T02:21:48;27.63;;;4.70;;
2772;SDS011;1394;47.044;15.744;2024-03-08T02:24:15;24.97;;;3.73;;
2772;SDS011;1394;47.044;15.744;2024-03-08T02:26:42;25.50;;;3.87;;
2772;SDS011;1394;47.044;15.744;2024-03-08T02:29:10;25.73;;;4.07;;
2772;SDS011;1394;47.044;15.744;2024-03-08T02:31:37;25.63;;;4.00;;
2772;SDS011;1394;47.044;15.744;2024-03-08T02:34:05;25.00;;;3.53;;
2772;SDS011;1394;47.044;15.744;2024-03-08T02:36:33;26.17;;;4.47;;
2772;SDS011;1394;47.044;15.744;2024-03-08T02:39:02;26.60;;;4.33;;
2772;SDS011;1394;47.044;15.744;2024-03-08T02:41:30;26.07;;;4.20;;
2772;SDS011;1394;47.044;15.744;2024-03-08T02:43:58;25.53;;;4.00;;
2772;SDS011;1394;47.044;15.744;2024-03-08T02:46:25;25.50;;;3.83;;
2772;SDS011;1394;47.044;15.744;2024-03-08T02:48:52;25.10;;;4.00;;
2772;SDS011;1394;47.044;15.744;2024-03-08T02:51:20;25.37;;;4.03;;
2772;SDS011;1394;47.044;15.744;2024-03-08T02:53:48;25.50;;;3.80;;
2772;SDS011;1394;47.044;15.744;2024-03-08T02:56:18;25.50;;;3.60;;
2772;SDS011;1394;47.044;15.744;2024-03-08T02:58:47;25.47;;;3.93;;
2772;SDS011;1394;47.044;15.744;2024-03-08T03:01:14;25.70;;;4.33;;
2772;SDS011;1394;47.044;15.744;2024-03-08T03:03:41;25.47;;;4.00;;
2772;SDS011;1394;47.044;15.744;2024-03-08T03:06:09;25.93;;;4.23;;
2772;SDS011;1394;47.044;15.744;2024-03-08T03:08:37;25.53;;;4.40;;
2772;SDS011;1394;47.044;15.744;2024-03-08T03:11:07;25.40;;;3.90;;
2772;SDS011;1394;47.044;15.744;2024-03-08T03:13:36;25.40;;;3.60;;
2772;SDS011;1394;47.044;15.744;2024-03-08T03:16:04;25.17;;;3.37;;
2772;SDS011;1394;47.044;15.744;2024-03-08T03:18:32;25.60;;;4.13;;
2772;SDS011;1394;47.044;15.744;2024-03-08T03:20:59;25.70;;;3.63;;
2772;SDS011;1394;47.044;15.744;2024-03-08T03:23:32;25.80;;;4.17;;
2772;SDS011;1394;47.044;15.744;2024-03-08T03:26:00;25.40;;;3.80;;
2772;SDS011;1394;47.044;15.744;2024-03-08T03:28:27;26.10;;;4.10;;
2772;SDS011;1394;47.044;15.744;2024-03-08T03:30:56;25.50;;;4.10;;
2772;SDS011;1394;47.044;15.744;2024-03-08T03:33:24;25.50;;;3.87;;
2772;SDS011;1394;47.044;15.744;2024-03-08T03:35:52;26.20;;;4.57;;
2772;SDS011;1394;47.044;15.744;2024-03-08T03:38:19;26.37;;;4.40;;
2772;SDS011;1394;47.044;15.744;2024-03-08T03:40:48;26.07;;;4.47;;
2772;SDS011;1394;47.044;15.744;2024-03-08T03:43:17;26.13;;;4.13;;
2772;SDS011;1394;47.044;15.744;2024-03-08T03:45:45;25.83;;;4.40;;
2772;SDS011;1394;47.044;15.744;2024-03-08T03:48:14;25.87;;;4.57;;
2772;SDS011;1394;47.044;15.744;2024-03-08T03:50:47;25.77;;;4.00;;
2772;SDS011;1394;47.044;15.744;2024-03-08T03:53:26;25.20;;;3.67;;
2772;SDS011;1394;47.044;15.744;2024-03-08T03:55:54;25.57;;;4.17;;
2772;SDS011;1394;47.044;15.744;2024-03-08T03:58:22;25.67;;;3.87;;
2772;SDS011;1394;47.044;15.744;2024-03-08T04:00:52;25.53;;;3.70;;
2772;SDS011;1394;47.044;15.744;2024-03-08T04:03:21;25.67;;;4.03;;
2772;SDS011;1394;47.044;15.744;2024-03-08T04:05:48;25.80;;;4.20;;
2772;SDS011;1394;47.044;15.744;2024-03-08T04:08:16;26.10;;;4.10;;
2772;SDS011;1394;47.044;15.744;2024-03-08T04:10:44;26.07;;;4.63;;
2772;SDS011;1394;47.044;15.744;2024-03-08T04:13:11;26.13;;;4.10;;
2772;SDS011;1394;47.044;15.744;2024-03-08T04:15:40;26.63;;;5.23;;
2772;SDS011;1394;47.044;15.744;2024-03-08T04:18:09;26.50;;;4.20;;
2772;SDS011;1394;47.044;15.744;2024-03-08T04:20:38;26.47;;;5.00;;
2772;SDS011;1394;47.044;15.744;2024-03-08T04:23:06;26.97;;;4.87;;
2772;SDS011;1394;47.044;15.744;2024-03-08T04:25:33;26.20;;;3.90;;
2772;SDS011;1394;47.044;15.744;2024-03-08T04:28:00;27.80;;;4.20;;
2772;SDS011;1394;47.044;15.744;2024-03-08T04:30:29;27.47;;;5.33;;
2772;SDS011;1394;47.044;15.744;2024-03-08T04:32:56;26.10;;;4.17;;
2772;SDS011;1394;47.044;15.744;2024-03-08T04:35:29;25.80;;;3.87;;
2772;SDS011;1394;47.044;15.744;2024-03-08T04:38:01;26.10;;;3.50;;
2772;SDS011;1394;47.044;15.744;2024-03-08T04:40:30;26.40;;;4.80;;
2772;SDS011;1394;47.044;15.744;2024-03-08T04:42:58;27.10;;;4.40;;
2772;SDS011;1394;47.044;15.744;2024-03-08T04:45:33;25.57;;;3.53;;
2772;SDS011;1394;47.044;15.744;2024-03-08T04:48:06;25.93;;;3.80;;
2772;SDS011;1394;47.044;15.744;2024-03-08T04:50:34;26.00;;;3.67;;
2772;SDS011;1394;47.044;15.744;2024-03-08T04:55:57;25.60;;;4.30;;
2772;SDS011;1394;47.044;15.744;2024-03-08T04:58:31;25.37;;;3.60;;
2772;SDS011;1394;47.044;15.744;2024-03-08T05:00:59;25.30;;;3.43;;
2772;SDS011;1394;47.044;15.744;2024-03-08T05:03:27;25.47;;;3.30;;
2772;SDS011;1394;47.044;15.744;2024-03-08T05:05:55;25.40;;;3.77;;
2772;SDS011;1394;47.044;15.744;2024-03-08T05:08:22;25.47;;;3.90;;
2772;SDS011;1394;47.044;15.744;2024-03-08T05:10:52;26.70;;;4.60;;
2772;SDS011;1394;47.044;15.744;2024-03-08T05:13:19;25.53;;;3.87;;
2772;SDS011;1394;47.044;15.744;2024-03-08T05:15:51;25.70;;;3.87;;
2772;SDS011;1394;47.044;15.744;2024-03-08T05:18:19;25.47;;;3.90;;
2772;SDS011;1394;47.044;15.744;2024-03-08T05:20:47;25.63;;;3.53;;
2772;SDS011;1394;47.044;15.744;2024-03-08T05:23:15;26.33;;;4.00;;
2772;SDS011;1394;47.044;15.744;2024-03-08T05:25:49;26.43;;;3.97;;
2772;SDS011;1394;47.044;15.744;2024-03-08T05:28:24;25.27;;;3.63;;
2772;SDS011;1394;47.044;15.744;2024-03-08T05:30:52;25.90;;;4.20;;
2772;SDS011;1394;47.044;15.744;2024-03-08T05:33:22;26.87;;;4.40;;
2772;SDS011;1394;47.044;15.744;2024-03-08T05:35:49;26.00;;;4.30;;
2772;SDS011;1394;47.044;15.744;2024-03-08T05:38:17;25.87;;;4.17;;
2772;SDS011;1394;47.044;15.744;2024-03-08T05:40:47;26.80;;;4.20;;
2772;SDS011;1394;47.044;15.744;2024-03-08T05:43:16;24.80;;;3.20;;
2772;SDS011;1394;47.044;15.744;2024-03-08T05:45:47;25.77;;;4.13;;
2772;SDS011;1394;47.044;15.744;2024-03-08T05:48:16;25.30;;;3.90;;
2772;SDS011;1394;47.044;15.744;2024-03-08T05:50:44;25.33;;;3.67;;
2772;SDS011;1394;47.044;15.744;2024-03-08T05:53:12;25.70;;;3.67;;
2772;SDS011;1394;47.044;15.744;2024-03-08T05:55:41;26.90;;;4.60;;
2772;SDS011;1394;47.044;15.744;2024-03-08T05:58:09;25.30;;;3.70;;
2772;SDS011;1394;47.044;15.744;2024-03-08T06:00:37;26.43;;;4.03;;
2772;SDS011;1394;47.044;15.744;2024-03-08T06:03:11;25.60;;;3.73;;
2772;SDS011;1394;47.044;15.744;2024-03-08T06:05:40;26.00;;;3.57;;
2772;SDS011;1394;47.044;15.744;2024-03-08T06:08:07;26.10;;;4.30;;
2772;SDS011;1394;47.044;15.744;2024-03-08T06:10:34;26.10;;;4.53;;
2772;SDS011;1394;47.044;15.744;2024-03-08T06:13:03;26.57;;;4.97;;
2772;SDS011;1394;47.044;15.744;2024-03-08T06:15:30;25.30;;;3.70;;
2772;SDS011;1394;47.044;15.744;2024-03-08T06:17:57;25.30;;;3.73;;
2772;SDS011;1394;47.044;15.744;2024-03-08T06:20:26;26.83;;;4.27;;
2772;SDS011;1394;47.044;15.744;2024-03-08T06:22:53;25.73;;;4.37;;
2772;SDS011;1394;47.044;15.744;2024-03-08T06:25:21;26.07;;;4.67;;
2772;SDS011;1394;47.044;15.744;2024-03-08T06:27:48;25.37;;;3.83;;
2772;SDS011;1394;47.044;15.744;2024-03-08T06:30:16;26.00;;;4.77;;
2772;SDS011;1394;47.044;15.744;2024-03-08T06:32:45;25.87;;;4.50;;
2772;SDS011;1394;47.044;15.744;2024-03-08T06:35:12;26.37;;;4.40;;
2772;SDS011;1394;47.044;15.744;2024-03-08T06:37:42;25.70;;;3.93;;
2772;SDS011;1394;47.044;15.744;2024-03-08T06:40:12;24.90;;;3.57;;
2772;SDS011;1394;47.044;15.744;2024-03-08T06:42:39;25.10;;;3.80;;
2772;SDS011;1394;47.044;15.744;2024-03-08T06:45:08;25.90;;;4.07;;
2772;SDS011;1394;47.044;15.744;2024-03-08T06:47:37;25.60;;;3.90;;
2772;SDS011;1394;47.044;15.744;2024-03-08T06:50:07;25.20;;;3.90;;
2772;SDS011;1394;47.044;15.744;2024-03-08T06:52:35;25.60;;;3.53;;
2772;SDS011;1394;47.044;15.744;2024-03-08T06:55:04;25.57;;;4.10;;
2772;SDS011;1394;47.044;15.744;2024-03-08T06:57:31;25.80;;;4.30;;
2772;SDS011;1394;47.044;15.744;2024-03-08T06:59:59;25.20;;;3.90;;
2772;SDS011;1394;47.044;15.744;2024-03-08T07:02:29;25.40;;;4.03;;
2772;SDS011;1394;47.044;15.744;2024-03-08T07:04:57;26.50;;;4.60;;
2772;SDS011;1394;47.044;15.744;2024-03-08T07:07:28;31.00;;;4.50;;
2772;SDS011;1394;47.044;15.744;2024-03-08T07:09:58;27.90;;;4.43;;
2772;SDS011;1394;47.044;15.744;2024-03-08T07:12:28;27.50;;;4.70;;
2772;SDS011;1394;47.044;15.744;2024-03-08T07:14:57;27.60;;;5.03;;
2772;SDS011;1394;47.044;15.744;2024-03-08T07:17:27;27.53;;;4.73;;
2772;SDS011;1394;47.044;15.744;2024-03-08T07:19:59;26.40;;;4.23;;
2772;SDS011;1394;47.044;15.744;2024-03-08T07:22:32;25.30;;;3.83;;
2772;SDS011;1394;47.044;15.744;2024-03-08T07:25:02;26.43;;;4.40;;
2772;SDS011;1394;47.044;15.744;2024-03-08T07:27:46;26.53;;;4.87;;
2772;SDS011;1394;47.044;15.744;2024-03-08T07:30:13;26.00;;;3.97;;
2772;SDS011;1394;47.044;15.744;2024-03-08T07:33:02;26.00;;;4.07;;
2772;SDS011;1394;47.044;15.744;2024-03-08T07:35:31;25.70;;;4.07;;
2772;SDS011;1394;47.044;15.744;2024-03-08T07:37:58;25.63;;;4.20;;
2772;SDS011;1394;47.044;15.744;2024-03-08T07:40:27;25.67;;;3.47;;
2772;SDS011;1394;47.044;15.744;2024-03-08T07:42:56;25.13;;;3.73;;
2772;SDS011;1394;47.044;15.744;2024-03-08T07:45:24;25.90;;;4.37;;
2772;SDS011;1394;47.044;15.744;2024-03-08T07:47:51;26.17;;;4.23;;
2772;SDS011;1394;47.044;15.744;2024-03-08T07:50:19;26.20;;;4.30;;
2772;SDS011;1394;47.044;15.744;2024-03-08T07:52:48;26.30;;;4.67;;
2772;SDS011;1394;47.044;15.744;2024-03-08T07:55:16;25.37;;;3.70;;
2772;SDS011;1394;47.044;15.744;2024-03-08T07:57:44;25.60;;;4.17;;
2772;SDS011;1394;47.044;15.744;2024-03-08T08:00:14;25.80;;;4.10;;
2772;SDS011;1394;47.044;15.744;2024-03-08T08:02:43;25.73;;;4.20;;
2772;SDS011;1394;47.044;15.744;2024-03-08T08:05:11;26.60;;;5.00;;
2772;SDS011;1394;47.044;15.744;2024-03-08T08:07:43;26.17;;;4.33;;
2772;SDS011;1394;47.044;15.744;2024-03-08T08:10:12;26.07;;;4.50;;
2772;SDS011;1394;47.044;15.744;2024-03-08T08:12:43;26.50;;;4.97;;
2772;SDS011;1394;47.044;15.744;2024-03-08T08:15:11;26.37;;;5.07;;
2772;SDS011;1394;47.044;15.744;2024-03-08T08:17:43;26.00;;;4.67;;
2772;SDS011;1394;47.044;15.744;2024-03-08T08:20:12;25.80;;;4.40;;
2772;SDS011;1394;47.044;15.744;2024-03-08T08:22:40;26.33;;;4.80;;
2772;SDS011;1394;47.044;15.744;2024-03-08T08:25:09;26.60;;;4.73;;
2772;SDS011;1394;47.044;15.744;2024-03-08T08:27:38;25.37;;;4.20;;
2772;SDS011;1394;47.044;15.744;2024-03-08T08:30:08;26.23;;;5.27;;
2772;SDS011;1394;47.044;15.744;2024-03-08T08:32:39;26.37;;;4.83;;
2772;SDS011;1394;47.044;15.744;2024-03-08T08:35:10;26.40;;;4.73;;
2772;SDS011;1394;47.044;15.744;2024-03-08T08:37:39;26.37;;;5.03;;
2772;SDS011;1394;47.044;15.744;2024-03-08T08:40:07;25.93;;;4.30;;
2772;SDS011;1394;47.044;15.744;2024-03-08T08:42:39;26.20;;;4.80;;
2772;SDS011;1394;47.044;15.744;2024-03-08T08:45:08;26.23;;;4.40;;
2772;SDS011;1394;47.044;15.744;2024-03-08T08:47:43;25.90;;;4.60;;
2772;SDS011;1394;47.044;15.744;2024-03-08T08:50:14;26.77;;;5.20;;
2772;SDS011;1394;47.044;15.744;2024-03-08T08:52:48;26.87;;;5.47;;
2772;SDS011;1394;47.044;15.744;2024-03-08T08:55:15;25.77;;;4.53;;
2772;SDS011;1394;47.044;15.744;2024-03-08T08:57:46;25.80;;;4.70;;
2772;SDS011;1394;47.044;15.744;2024-03-08T09:00:14;26.93;;;4.80;;
2772;SDS011;1394;47.044;15.744;2024-03-08T09:02:42;26.70;;;4.97;;
2772;SDS011;1394;47.044;15.744;2024-03-08T09:05:12;26.10;;;4.60;;
2772;SDS011;1394;47.044;15.744;2024-03-08T09:07:49;25.80;;;4.30;;
2772;SDS011;1394;47.044;15.744;2024-03-08T09:10:18;25.60;;;4.17;;
2772;SDS011;1394;47.044;15.744;2024-03-08T09:12:45;25.90;;;4.57;;
2772;SDS011;1394;47.044;15.744;2024-03-08T09:15:12;26.33;;;4.93;;
2772;SDS011;1394;47.044;15.744;2024-03-08T09:17:45;27.20;;;4.37;;
2772;SDS011;1394;47.044;15.744;2024-03-08T09:20:13;25.90;;;4.17;;
2772;SDS011;1394;47.044;15.744;2024-03-08T09:22:43;25.30;;;3.80;;
2772;SDS011;1394;47.044;15.744;2024-03-08T09:25:13;25.10;;;3.67;;
2772;SDS011;1394;47.044;15.744;2024-03-08T09:27:41;25.50;;;3.67;;
2772;SDS011;1394;47.044;15.744;2024-03-08T09:30:09;25.20;;;3.40;;
2772;SDS011;1394;47.044;15.744;2024-03-08T09:32:40;25.17;;;3.27;;
2772;SDS011;1394;47.044;15.744;2024-03-08T09:35:08;24.67;;;2.77;;
2772;SDS011;1394;47.044;15.744;2024-03-08T09:37:36;24.77;;;3.30;;
2772;SDS011;1394;47.044;15.744;2024-03-08T09:40:04;24.93;;;3.20;;
2772;SDS011;1394;47.044;15.744;2024-03-08T09:42:35;24.70;;;2.90;;
2772;SDS011;1394;47.044;15.744;2024-03-08T09:45:04;25.17;;;3.80;;
2772;SDS011;1394;47.044;15.744;2024-03-08T09:47:33;25.10;;;3.33;;
2772;SDS011;1394;47.044;15.744;2024-03-08T09:50:04;25.13;;;3.70;;
2772;SDS011;1394;47.044;15.744;2024-03-08T09:52:34;24.40;;;3.17;;
2772;SDS011;1394;47.044;15.744;2024-03-08T09:55:04;24.70;;;3.23;;
2772;SDS011;1394;47.044;15.744;2024-03-08T09:57:34;25.90;;;3.47;;
2772;SDS011;1394;47.044;15.744;2024-03-08T10:00:05;25.17;;;3.50;;
2772;SDS011;1394;47.044;15.744;2024-03-08T10:02:44;24.80;;;3.30;;
2772;SDS011;1394;47.044;15.744;2024-03-08T10:05:12;25.10;;;3.63;;
2772;SDS011;1394;47.044;15.744;2024-03-08T10:07:39;25.30;;;3.60;;
2772;SDS011;1394;47.044;15.744;2024-03-08T10:10:14;26.00;;;4.10;;
2772;SDS011;1394;47.044;15.744;2024-03-08T10:12:43;25.47;;;3.73;;
2772;SDS011;1394;47.044;15.744;2024-03-08T10:15:15;25.30;;;3.60;;
2772;SDS011;1394;47.044;15.744;2024-03-08T10:17:42;25.43;;;3.80;;
2772;SDS011;1394;47.044;15.744;2024-03-08T10:20:13;24.73;;;3.10;;
2772;SDS011;1394;47.044;15.744;2024-03-08T10:22:41;24.90;;;3.30;;
2772;SDS011;1394;47.044;15.744;2024-03-08T10:25:09;25.63;;;3.13;;
2772;SDS011;1394;47.044;15.744;2024-03-08T10:27:39;24.97;;;3.20;;
2772;SDS011;1394;47.044;15.744;2024-03-08T10:30:10;25.07;;;3.60;;
2772;SDS011;1394;47.044;15.744;2024-03-08T10:32:40;25.40;;;4.07;;
2772;SDS011;1394;47.044;15.744;2024-03-08T10:35:10;24.87;;;3.30;;
2772;SDS011;1394;47.044;15.744;2024-03-08T10:37:41;25.00;;;3.30;;
2772;SDS011;1394;47.044;15.744;2024-03-08T10:40:10;24.87;;;3.37;;
2772;SDS011;1394;47.044;15.744;2024-03-08T10:42:41;26.23;;;3.73;;
2772;SDS011;1394;47.044;15.744;2024-03-08T10:45:19;24.80;;;3.27;;
2772;SDS011;1394;47.044;15.744;2024-03-08T10:47:55;24.80;;;3.43;;
2772;SDS011;1394;47.044;15.744;2024-03-08T10:50:25;24.70;;;3.13;;
2772;SDS011;1394;47.044;15.744;2024-03-08T10:52:53;24.80;;;3.13;;
2772;SDS011;1394;47.044;15.744;2024-03-08T10:55:25;25.40;;;3.37;;
2772;SDS011;1394;47.044;15.744;2024-03-08T10:57:52;25.00;;;3.23;;
2772;SDS011;1394;47.044;15.744;2024-03-08T11:00:20;25.40;;;3.70;;
2772;SDS011;1394;47.044;15.744;2024-03-08T11:02:53;25.00;;;3.80;;
2772;SDS011;1394;47.044;15.744;2024-03-08T11:05:31;24.80;;;3.27;;
2772;SDS011;1394;47.044;15.744;2024-03-08T11:08:00;25.40;;;3.87;;
2772;SDS011;1394;47.044;15.744;2024-03-08T11:10:30;26.80;;;3.60;;
2772;SDS011;1394;47.044;15.744;2024-03-08T11:12:57;25.67;;;3.50;;
2772;SDS011;1394;47.044;15.744;2024-03-08T11:15:25;26.33;;;3.77;;
2772;SDS011;1394;47.044;15.744;2024-03-08T11:17:58;25.60;;;3.60;;
2772;SDS011;1394;47.044;15.744;2024-03-08T11:20:25;25.47;;;3.63;;
2772;SDS011;1394;47.044;15.744;2024-03-08T11:22:54;25.67;;;4.10;;
2772;SDS011;1394;47.044;15.744;2024-03-08T11:25:31;25.03;;;3.50;;
2772;SDS011;1394;47.044;15.744;2024-03-08T11:28:08;25.00;;;3.63;;
2772;SDS011;1394;47.044;15.744;2024-03-08T11:30:41;25.33;;;3.83;;
2772;SDS011;1394;47.044;15.744;2024-03-08T11:33:15;24.87;;;3.47;;
2772;SDS011;1394;47.044;15.744;2024-03-08T11:35:43;24.97;;;3.20;;
2772;SDS011;1394;47.044;15.744;2024-03-08T11:38:12;24.40;;;2.83;;
2772;SDS011;1394;47.044;15.744;2024-03-08T11:40:41;25.60;;;3.47;;
2772;SDS011;1394;47.044;15.744;2024-03-08T11:43:10;24.77;;;3.30;;
2772;SDS011;1394;47.044;15.744;2024-03-08T11:45:39;24.70;;;3.30;;
2772;SDS011;1394;47.044;15.744;2024-03-08T11:48:06;24.77;;;3.33;;
2772;SDS011;1394;47.044;15.744;2024-03-08T11:50:36;24.80;;;3.60;;
2772;SDS011;1394;47.044;15.744;2024-03-08T11:53:03;25.80;;;4.00;;
2772;SDS011;1394;47.044;15.744;2024-03-08T11:55:32;25.27;;;3.87;;
2772;SDS011;1394;47.044;15.744;2024-03-08T11:58:04;25.43;;;3.60;;
2772;SDS011;1394;47.044;15.744;2024-03-08T12:00:34;24.90;;;3.20;;
2772;SDS011;1394;47.044;15.744;2024-03-08T12:03:05;24.90;;;3.10;;
2772;SDS011;1394;47.044;15.744;2024-03-08T12:05:35;24.80;;;3.20;;
2772;SDS011;1394;47.044;15.744;2024-03-08T12:08:03;25.47;;;3.60;;
2772;SDS011;1394;47.044;15.744;2024-03-08T12:10:37;25.20;;;3.50;;
2772;SDS011;1394;47.044;15.744;2024-03-08T12:13:05;25.90;;;4.30;;
2772;SDS011;1394;47.044;15.744;2024-03-08T12:15:38;25.07;;;3.53;;
2772;SDS011;1394;47.044;15.744;2024-03-08T12:18:06;25.30;;;3.57;;
2772;SDS011;1394;47.044;15.744;2024-03-08T12:20:37;25.73;;;3.70;;
2772;SDS011;1394;47.044;15.744;2024-03-08T12:23:07;24.80;;;3.13;;
2772;SDS011;1394;47.044;15.744;2024-03-08T12:25:41;25.07;;;3.37;;
2772;SDS011;1394;47.044;15.744;2024-03-08T12:28:10;25.10;;;3.13;;
2772;SDS011;1394;47.044;15.744;2024-03-08T12:30:45;27.20;;;3.73;;
2772;SDS011;1394;47.044;15.744;2024-03-08T12:33:13;25.30;;;3.70;;
2772;SDS011;1394;47.044;15.744;2024-03-08T12:35:49;25.93;;;3.20;;
2772;SDS011;1394;47.044;15.744;2024-03-08T12:38:20;25.20;;;3.47;;
2772;SDS011;1394;47.044;15.744;2024-03-08T12:40:54;24.70;;;3.10;;
2772;SDS011;1394;47.044;15.744;2024-03-08T12:43:23;24.80;;;3.50;;
2772;SDS011;1394;47.044;15.744;2024-03-08T12:45:51;24.57;;;2.93;;
2772;SDS011;1394;47.044;15.744;2024-03-08T12:48:20;25.40;;;3.03;;
2772;SDS011;1394;47.044;15.744;2024-03-08T12:50:49;25.43;;;3.20;;
2772;SDS011;1394;47.044;15.744;2024-03-08T12:53:17;24.97;;;3.07;;
2772;SDS011;1394;47.044;15.744;2024-03-08T12:55:46;25.00;;;3.30;;
2772;SDS011;1394;47.044;15.744;2024-03-08T12:58:13;25.70;;;3.33;;
2772;SDS011;1394;47.044;15.744;2024-03-08T13:00:41;25.33;;;3.40;;
2772;SDS011;1394;47.044;15.744;2024-03-08T13:03:11;24.70;;;3.10;;
2772;SDS011;1394;47.044;15.744;2024-03-08T13:05:38;24.70;;;3.03;;
2772;SDS011;1394;47.044;15.744;2024-03-08T13:08:09;24.80;;;3.47;;
2772;SDS011;1394;47.044;15.744;2024-03-08T13:10:38;24.80;;;3.47;;
2772;SDS011;1394;47.044;15.744;2024-03-08T13:13:08;24.93;;;3.13;;
2772;SDS011;1394;47.044;15.744;2024-03-08T13:15:36;25.47;;;3.87;;
2772;SDS011;1394;47.044;15.744;2024-03-08T13:18:06;24.80;;;3.10;;
2772;SDS011;1394;47.044;15.744;2024-03-08T13:20:35;24.53;;;2.90;;
2772;SDS011;1394;47.044;15.744;2024-03-08T13:23:03;25.50;;;3.20;;
2772;SDS011;1394;47.044;15.744;2024-03-08T13:25:37;25.00;;;3.40;;
2772;SDS011;1394;47.044;15.744;2024-03-08T13:28:05;24.87;;;3.20;;
2772;SDS011;1394;47.044;15.744;2024-03-08T13:30:32;25.43;;;3.13;;
2772;SDS011;1394;47.044;15.744;2024-03-08T13:33:04;24.93;;;3.00;;
2772;SDS011;1394;47.044;15.744;2024-03-08T13:35:32;24.67;;;2.90;;
2772;SDS011;1394;47.044;15.744;2024-03-08T13:38:03;25.07;;;3.20;;
2772;SDS011;1394;47.044;15.744;2024-03-08T13:40:37;24.70;;;2.87;;
2772;SDS011;1394;47.044;15.744;2024-03-08T13:43:06;24.50;;;2.90;;
2772;SDS011;1394;47.044;15.744;2024-03-08T13:45:33;25.77;;;3.07;;
2772;SDS011;1394;47.044;15.744;2024-03-08T13:48:04;25.47;;;3.03;;
2772;SDS011;1394;47.044;15.744;2024-03-08T13:50:37;26.03;;;3.50;;
2772;SDS011;1394;47.044;15.744;2024-03-08T13:53:06;25.33;;;3.77;;
2772;SDS011;1394;47.044;15.744;2024-03-08T13:55:37;25.23;;;3.50;;
2772;SDS011;1394;47.044;15.744;2024-03-08T13:58:06;25.60;;;3.93;;
2772;SDS011;1394;47.044;15.744;2024-03-08T14:00:35;25.97;;;3.70;;
2772;SDS011;1394;47.044;15.744;2024-03-08T14:03:03;25.27;;;3.67;;
2772;SDS011;1394;47.044;15.744;2024-03-08T14:05:32;25.30;;;3.70;;
2772;SDS011;1394;47.044;15.744;2024-03-08T14:08:05;25.50;;;3.80;;
2772;SDS011;1394;47.044;15.744;2024-03-08T14:10:32;25.70;;;4.27;;
2772;SDS011;1394;47.044;15.744;2024-03-08T14:13:03;25.67;;;4.30;;
2772;SDS011;1394;47.044;15.744;2024-03-08T14:15:32;26.03;;;4.60;;
2772;SDS011;1394;47.044;15.744;2024-03-08T14:17:59;26.17;;;4.50;;
2772;SDS011;1394;47.044;15.744;2024-03-08T14:20:27;26.10;;;4.93;;
2772;SDS011;1394;47.044;15.744;2024-03-08T14:22:54;25.50;;;4.30;;
2772;SDS011;1394;47.044;15.744;2024-03-08T14:25:27;26.03;;;4.47;;
2772;SDS011;1394;47.044;15.744;2024-03-08T14:27:56;25.77;;;4.37;;
2772;SDS011;1394;47.044;15.744;2024-03-08T14:30:28;26.03;;;4.10;;
2772;SDS011;1394;47.044;15.744;2024-03-08T14:33:00;26.10;;;4.40;;
2772;SDS011;1394;47.044;15.744;2024-03-08T14:35:27;25.53;;;3.87;;
2772;SDS011;1394;47.044;15.744;2024-03-08T14:37:56;25.40;;;3.73;;
2772;SDS011;1394;47.044;15.744;2024-03-08T14:40:24;25.33;;;3.70;;
2772;SDS011;1394;47.044;15.744;2024-03-08T14:42:52;25.40;;;3.67;;
2772;SDS011;1394;47.044;15.744;2024-03-08T14:45:23;26.00;;;4.10;;
2772;SDS011;1394;47.044;15.744;2024-03-08T14:48:00;25.73;;;3.83;;
2772;SDS011;1394;47.044;15.744;2024-03-08T14:50:27;26.53;;;4.70;;
2772;SDS011;1394;47.044;15.744;2024-03-08T14:52:58;26.13;;;4.53;;
2772;SDS011;1394;47.044;15.744;2024-03-08T14:55:26;25.60;;;3.90;;
2772;SDS011;1394;47.044;15.744;2024-03-08T14:57:56;26.60;;;4.17;;
2772;SDS011;1394;47.044;15.744;2024-03-08T15:00:24;26.00;;;4.50;;
2772;SDS011;1394;47.044;15.744;2024-03-08T15:03:00;26.07;;;4.47;;
2772;SDS011;1394;47.044;15.744;2024-03-08T15:05:29;26.77;;;4.20;;
2772;SDS011;1394;47.044;15.744;2024-03-08T15:08:01;29.97;;;4.30;;